KISM/ISM METAR and TAF weather

Enter ICAO airport designator
Station Type Date Time Source
KISM METAR 2019/08/18 18:56 UTC NOAA

KISM 181856Z 19006KT 10SM CLR 33/22 A3010 RMK AO2 SLP193 T03280217 PNO $


Station Type Date Time Source
KISM Decoded METAR 2019/08/18 18:56 UTC NOAA

Station name not available
Aug 18, 2019 - 02:56 PM EDT / 2019.08.18 1856 UTC
Wind: from the S (190 degrees) at 7 MPH (6 KT):0
Visibility: 10 mile(s):0
Sky conditions: clear
Temperature: 91.0 F (32.8 C)
Heat index: 97.5 F (36.4 C):1
Dew Point: 71.1 F (21.7 C)
Relative Humidity: 52%
Pressure (altimeter): 30.1 in. Hg (1019 hPa)
ob: KISM 181856Z 19006KT 10SM CLR 33/22 A3010 RMK AO2 SLP193 T03280217 PNO
cycle: 19

Station Type Date Time Source
KISM TAF 2019/08/18 18:24 UTC NOAA

TAF KISM 181722Z 1818/1918 21006KT P6SM FEW025 FEW110 SCT200
FM182000 24008KT P6SM VCTS SCT040CB SCT060 BKN250
FM190000 VRB03KT P6SM FEW035 SCT100 BKN250
FM191500 13005KT P6SM FEW030 BKN250

Example: see airport list